Rollingbay, Washington
Current Conditions -  °F | °C
As of 12:53 AM on Monday 22 Dec 2014 (Local Time) from KBFI Reporting Station
Few Clouds Few Clouds  
Wind Chill: 52°   Ceiling: Unl
Heat Index: 52°   Visibility: 10mi
Dew Point: 44°   Wind: 3mph
Humidity: 74%   Direction: 210°SSW
Pressure: 30.14"   Gusts: NA
Location:  47.66°N, 122.51°W
Report Text: KBFI 220853Z 21003KT 10SM FEW019 11/07 A3014 RMK AO2 SLP204 T01110067 53023
Loading
Personal Weather Stations






























Interactive Weather Map New forecast layout! Learn more

10-Day Weather Forecast

Advertisements
Track Severe Weather on mobile